Time;durP1;ratioP1;P1;durP2;ratioP2;P2;SDS_P1;SDS_P2;PMS_P1;PMS_P2;Temp;Humidity;BMP_temperature;BMP_pressure;BME280_temperature;BME280_humidity;BME280_pressure;Samples;Min_cycle;Max_cycle;Signal;HPM_P1;HPM_P2
2022/01/23 00:00:18;;;;;;;63.25;36.70;;;;;;;5.11;100.00;103469.63;10455619;28;20055;-56
2022/01/23 00:05:23;;;;;;;55.10;35.45;;;;;;;5.13;100.00;103469.66;10457249;28;20047;-56
2022/01/23 00:10:25;;;;;;;67.50;39.85;;;;;;;5.07;100.00;103470.44;10456415;28;20049;-55
2022/01/23 00:20:53;;;;;;;73.40;41.85;;;;;;;4.63;100.00;103448.41;10461654;28;20049;-53
2022/01/23 00:31:17;;;;;;;79.85;45.22;;;;;;;4.59;100.00;103451.84;10464299;28;20041;-54
2022/01/23 00:36:21;;;;;;;77.30;45.65;;;;;;;4.65;100.00;103440.66;10464512;28;20057;-54
2022/01/23 00:41:24;;;;;;;74.68;44.15;;;;;;;4.62;100.00;103448.41;10463838;28;20060;-54
2022/01/23 00:46:35;;;;;;;80.47;41.83;;;;;;;4.64;100.00;103437.19;10463856;28;20045;-54
2022/01/23 00:51:39;;;;;;;64.10;39.57;;;;;;;4.71;100.00;103450.22;10464222;28;20151;-59
2022/01/23 00:56:41;;;;;;;61.00;39.25;;;;;;;4.72;100.00;103457.16;10464309;28;20075;-58
2022/01/23 01:01:44;;;;;;;63.50;40.70;;;;;;;4.74;100.00;103452.84;10463644;28;20049;-57
2022/01/23 01:06:47;;;;;;;59.90;36.92;;;;;;;4.92;100.00;103463.41;10462896;28;20482;-58
2022/01/23 01:38:17;;;;;;;84.50;45.22;;;;;;;4.61;100.00;103467.44;10462268;28;20057;-57
2022/01/23 01:43:19;;;;;;;83.72;47.50;;;;;;;4.86;100.00;103463.38;10461711;28;20061;-57
2022/01/23 01:48:24;;;;;;;98.60;50.95;;;;;;;4.63;100.00;103455.34;10461542;28;20064;-55
2022/01/23 01:53:27;;;;;;;87.68;44.95;;;;;;;4.62;100.00;103443.22;10462174;28;20045;-57
2022/01/23 02:09:15;;;;;;;61.03;38.95;;;;;;;4.62;100.00;103441.50;10460117;28;20049;-52
2022/01/23 02:57:05;;;;;;;78.43;42.10;;;;;;;4.72;100.00;103431.19;10458778;28;20440;-55
2022/01/23 03:33:41;;;;;;;66.57;38.15;;;;;;;4.63;100.00;103429.41;10458466;28;20040;-58
2022/01/23 03:38:44;;;;;;;57.92;36.60;;;;;;;4.88;100.00;103429.63;10457348;28;20060;-56
2022/01/23 03:43:47;;;;;;;66.90;38.10;;;;;;;4.90;100.00;103436.56;10455459;28;20441;-59
2022/01/23 03:54:11;;;;;;;55.75;34.03;;;;;;;4.97;100.00;103448.72;10456098;28;20056;-52
2022/01/23 03:59:13;;;;;;;73.60;39.78;;;;;;;4.95;100.00;103465.16;10456616;28;20397;-55
2022/01/23 04:04:58;;;;;;;63.10;38.20;;;;;;;4.81;100.00;103460.72;10457025;28;20051;-54
2022/01/23 04:09:42;;;;;;;71.63;39.83;;;;;;;4.69;100.00;103457.13;10456476;28;20048;-56
2022/01/23 04:14:51;;;;;;;64.22;39.97;;;;;;;4.90;100.00;103459.91;10456325;28;20049;-55
2022/01/23 04:20:30;;;;;;;73.18;41.60;;;;;;;4.87;100.00;103457.28;10456715;28;20045;-54
2022/01/23 04:47:19;;;;;;;57.20;34.30;;;;;;;5.07;100.00;103461.81;10457215;28;20060;-58
2022/01/23 05:08:08;;;;;;;84.25;41.85;;;;;;;4.99;100.00;103466.91;10463424;28;20048;-55
2022/01/23 05:13:10;;;;;;;74.47;40.88;;;;;;;4.94;100.00;103463.41;10462861;28;20052;-57
2022/01/23 05:18:12;;;;;;;52.63;32.97;;;;;;;5.11;100.00;103466.16;10462008;28;20056;-57
2022/01/23 05:23:15;;;;;;;77.15;41.30;;;;;;;4.87;100.00;103459.88;10462631;28;20056;-55
2022/01/23 05:28:18;;;;;;;69.00;39.97;;;;;;;4.95;100.00;103468.63;10462589;28;20053;-52
2022/01/23 05:33:21;;;;;;;78.47;40.70;;;;;;;4.88;100.00;103469.44;10462332;28;20049;-55
2022/01/23 05:38:23;;;;;;;80.63;43.95;;;;;;;4.94;100.00;103474.69;10462227;28;20409;-57
2022/01/23 05:43:26;;;;;;;58.90;33.92;;;;;;;5.22;100.00;103464.53;10462643;28;20124;-57
2022/01/23 05:48:29;;;;;;;59.63;35.22;;;;;;;5.03;100.00;103466.97;10461520;28;20068;-56
2022/01/23 05:53:31;;;;;;;68.63;37.00;;;;;;;4.76;100.00;103465.00;10461175;28;20056;-57
2022/01/23 05:58:33;;;;;;;65.10;38.83;;;;;;;4.77;100.00;103482.28;10461175;28;20052;-56
2022/01/23 06:03:36;;;;;;;77.38;40.42;;;;;;;5.01;100.00;103478.22;10460767;28;20056;-57
2022/01/23 06:08:38;;;;;;;77.35;41.75;;;;;;;5.12;100.00;103481.75;10460767;28;20049;-54
2022/01/23 06:13:40;;;;;;;83.97;41.45;;;;;;;4.99;100.00;103469.50;10460527;28;20064;-53
2022/01/23 06:18:44;;;;;;;91.60;41.85;;;;;;;4.96;100.00;103475.56;10459503;28;20378;-53
2022/01/23 06:23:55;;;;;;;54.70;33.15;;;;;;;5.14;100.00;103479.16;10460250;28;20049;-53
2022/01/23 06:29:02;;;;;;;91.50;42.97;;;;;;;5.00;100.00;103479.91;10460580;28;20060;-55
2022/01/23 06:34:06;;;;;;;76.30;39.35;;;;;;;4.79;100.00;103484.91;10459951;28;20049;-56
2022/01/23 06:39:10;;;;;;;82.30;43.10;;;;;;;4.71;100.00;103490.03;10458194;28;20057;-54
2022/01/23 06:44:13;;;;;;;81.75;43.90;;;;;;;4.81;100.00;103486.66;10459940;28;20065;-56
2022/01/23 06:49:15;;;;;;;71.15;40.63;;;;;;;4.73;100.00;103497.84;10459256;28;20045;-53
2022/01/23 06:54:18;;;;;;;84.60;42.20;;;;;;;4.90;100.00;103496.28;10459169;28;20049;-55
2022/01/23 06:59:21;;;;;;;63.88;37.40;;;;;;;4.99;100.00;103504.16;10459059;28;20076;-55
2022/01/23 07:04:24;;;;;;;86.47;42.92;;;;;;;4.67;100.00;103501.22;10458435;28;20497;-55
2022/01/23 07:09:26;;;;;;;74.38;40.63;;;;;;;4.63;100.00;103513.28;10458553;28;20048;-54
2022/01/23 07:14:28;;;;;;;72.15;39.17;;;;;;;4.68;100.00;103518.53;10458865;28;20052;-57
2022/01/23 07:19:31;;;;;;;77.18;39.45;;;;;;;4.73;100.00;103527.25;10458309;28;20060;-55
2022/01/23 07:24:33;;;;;;;67.40;37.28;;;;;;;4.62;100.00;103528.84;10457606;28;20409;-57
2022/01/23 07:29:36;;;;;;;69.47;38.58;;;;;;;4.77;100.00;103529.00;10456527;28;20049;-53
2022/01/23 07:34:38;;;;;;;72.13;38.22;;;;;;;4.53;100.00;103542.59;10440091;28;20053;-53
2022/01/23 07:39:41;;;;;;;79.80;38.40;;;;;;;4.89;100.00;103540.38;10456444;28;20059;-53
2022/01/23 07:44:43;;;;;;;124.20;48.97;;;;;;;4.69;100.00;103537.56;10457163;28;20049;-55
2022/01/23 07:50:06;;;;;;;99.38;48.15;;;;;;;4.64;100.00;103541.00;10457682;28;20055;-56
2022/01/23 07:55:13;;;;;;;68.50;36.92;;;;;;;4.93;100.00;103552.56;10456468;28;20057;-58
2022/01/23 08:00:16;;;;;;;95.85;45.38;;;;;;;4.75;100.00;103566.19;10455541;28;20053;-54
2022/01/23 08:05:18;;;;;;;89.28;42.15;;;;;;;4.62;100.00;103566.06;10456388;28;20053;-55
2022/01/23 08:10:21;;;;;;;96.47;44.22;;;;;;;4.67;100.00;103560.03;10456469;28;20124;-57
2022/01/23 08:15:23;;;;;;;81.22;43.70;;;;;;;4.63;100.00;103564.34;10456627;28;20041;-56
2022/01/23 08:20:26;;;;;;;98.45;47.17;;;;;;;4.69;100.00;103567.00;10455435;28;20053;-55
2022/01/23 08:25:29;;;;;;;73.43;38.47;;;;;;;5.11;100.00;103577.81;10456337;28;20060;-56
2022/01/23 08:30:31;;;;;;;114.20;50.78;;;;;;;5.02;100.00;103579.47;10456057;28;20049;-54
2022/01/23 08:35:34;;;;;;;71.35;38.95;;;;;;;4.97;100.00;103585.47;10455824;28;20477;-56
2022/01/23 08:45:45;;;;;;;88.07;42.65;;;;;;;5.02;100.00;103578.59;10464755;28;20056;-54
2022/01/23 08:50:48;;;;;;;93.07;46.15;;;;;;;5.17;100.00;103586.53;10464005;28;20103;-55
2022/01/23 08:55:50;;;;;;;72.63;36.88;;;;;;;5.50;100.00;103590.31;10463736;28;20053;-57
2022/01/23 09:00:52;;;;;;;73.45;37.28;;;;;;;5.37;100.00;103588.47;10463177;28;20485;-54
2022/01/23 09:05:55;;;;;;;72.00;37.83;;;;;;;5.37;100.00;103586.75;10463477;28;20053;-55
2022/01/23 09:10:59;;;;;;;75.28;36.83;;;;;;;5.56;100.00;103581.69;10463114;28;20048;-59
2022/01/23 09:16:01;;;;;;;71.43;36.80;;;;;;;5.61;100.00;103581.75;10462898;28;20057;-53
2022/01/23 09:21:04;;;;;;;77.45;38.92;;;;;;;5.57;100.00;103581.72;10463371;28;20049;-57
2022/01/23 09:26:09;;;;;;;92.38;42.72;;;;;;;5.68;100.00;103586.13;10463441;28;20056;-55
2022/01/23 09:31:15;;;;;;;78.00;41.58;;;;;;;5.67;100.00;103587.88;10462660;28;20060;-58
2022/01/23 09:36:17;;;;;;;77.40;39.90;;;;;;;5.54;100.00;103588.63;10461506;28;20079;-57
2022/01/23 09:41:24;;;;;;;78.93;40.55;;;;;;;5.72;100.00;103590.50;10461803;28;20378;-54
2022/01/23 09:46:26;;;;;;;74.43;38.58;;;;;;;5.81;100.00;103593.16;10461052;28;20047;-56
2022/01/23 09:51:29;;;;;;;57.92;32.70;;;;;;;6.02;100.00;103594.19;10460068;28;20049;-55
2022/01/23 09:56:34;;;;;;;54.72;30.73;;;;;;;6.21;100.00;103588.25;10460274;28;20045;-56
2022/01/23 10:01:41;;;;;;;22.50;14.65;;;;;;;6.38;100.00;103601.34;10462045;28;20049;-57
2022/01/23 10:06:44;;;;;;;54.45;31.48;;;;;;;6.24;100.00;103603.03;10461631;28;20102;-58
2022/01/23 10:11:46;;;;;;;65.70;34.42;;;;;;;6.31;100.00;103605.66;10460764;28;20075;-55
2022/01/23 10:16:49;;;;;;;57.38;32.30;;;;;;;6.10;100.00;103595.13;10459705;28;20060;-57
2022/01/23 10:21:51;;;;;;;43.40;25.10;;;;;;;6.24;100.00;103610.84;10461085;28;20053;-55
2022/01/23 10:26:57;;;;;;;41.05;23.52;;;;;;;6.40;100.00;103606.56;10459421;28;20052;-53
2022/01/23 10:32:19;;;;;;;27.77;17.35;;;;;;;6.33;100.00;103603.06;10459888;28;20059;-57
2022/01/23 10:37:32;;;;;;;27.30;17.98;;;;;;;6.39;100.00;103607.41;10460295;28;20045;-56
2022/01/23 10:47:54;;;;;;;19.30;12.35;;;;;;;6.73;100.00;103598.03;10459384;28;20048;-54
2022/01/23 10:52:59;;;;;;;12.50;8.63;;;;;;;6.79;100.00;103599.78;10459252;28;20041;-57
2022/01/23 10:58:06;;;;;;;9.75;6.72;;;;;;;6.77;100.00;103591.97;10459013;28;20049;-58
2022/01/23 11:03:23;;;;;;;8.98;7.15;;;;;;;6.94;100.00;103588.53;10457189;28;20049;-56
2022/01/23 11:08:32;;;;;;;14.27;8.27;;;;;;;6.93;100.00;103582.47;10458984;28;20055;-56
2022/01/23 11:18:57;;;;;;;11.60;8.07;;;;;;;6.91;100.00;103573.78;10458354;28;20055;-58
2022/01/23 11:24:00;;;;;;;10.88;8.05;;;;;;;7.02;100.00;103577.28;10458226;28;20057;-59
2022/01/23 11:29:17;;;;;;;12.48;8.75;;;;;;;7.15;100.00;103575.56;10457919;28;20056;-57
2022/01/23 11:34:22;;;;;;;11.77;8.95;;;;;;;6.55;100.00;103567.59;10457493;28;20049;-55
2022/01/23 11:55:46;;;;;;;5.60;4.55;;;;;;;6.83;100.00;103565.09;10455586;28;20048;-56
2022/01/23 12:00:48;;;;;;;4.75;4.22;;;;;;;6.81;100.00;103557.28;10458256;28;20063;-57
2022/01/23 12:06:11;;;;;;;9.25;5.88;;;;;;;6.83;100.00;103557.28;10455197;28;20056;-53
2022/01/23 12:16:51;;;;;;;6.17;5.33;;;;;;;6.97;100.00;103539.06;10455894;28;20070;-56
2022/01/23 12:21:55;;;;;;;5.38;3.70;;;;;;;6.74;100.00;103544.22;10456240;28;20049;-55
2022/01/23 12:27:18;;;;;;;5.20;4.30;;;;;;;6.77;100.00;103544.22;10455731;28;20045;-55
2022/01/23 12:32:26;;;;;;;4.15;3.70;;;;;;;6.80;97.17;103541.63;10455642;28;20409;-54
2022/01/23 12:37:55;;;;;;;8.32;5.57;;;;;;;6.72;96.90;103530.34;10457391;28;20049;-58
2022/01/23 12:43:15;;;;;;;8.27;6.20;;;;;;;6.57;100.00;103531.16;10455728;28;20408;-56
2022/01/23 12:48:27;;;;;;;9.73;6.63;;;;;;;6.55;100.00;103525.94;10456091;28;20045;-57
2022/01/23 12:53:42;;;;;;;9.20;6.72;;;;;;;6.70;100.00;103525.97;10455732;28;20049;-54
2022/01/23 12:58:59;;;;;;;8.68;6.72;;;;;;;6.78;100.00;103514.72;10455889;28;20075;-58
2022/01/23 13:04:04;;;;;;;9.30;7.10;;;;;;;6.62;100.00;103512.09;10455585;28;20102;-58
2022/01/23 13:09:26;;;;;;;10.68;8.27;;;;;;;6.67;100.00;103507.78;10456222;28;20056;-56
2022/01/23 13:15:15;;;;;;;9.15;6.88;;;;;;;6.59;100.00;103508.59;10455865;28;20409;-58
2022/01/23 13:31:52;;;;;;;8.90;6.28;;;;;;;6.58;100.00;103506.88;10463057;28;20061;-54
2022/01/23 13:37:03;;;;;;;10.70;7.63;;;;;;;6.49;100.00;103516.38;10462306;28;20052;-57
2022/01/23 13:48:12;;;;;;;12.82;7.50;;;;;;;6.29;100.00;103505.03;10460690;28;20052;-58
2022/01/23 13:53:27;;;;;;;9.68;7.72;;;;;;;6.37;100.00;103508.56;10460934;28;20056;-58
2022/01/23 14:03:35;;;;;;;20.20;8.68;;;;;;;6.50;100.00;103499.03;10461978;28;20045;-55
2022/01/23 14:08:37;;;;;;;8.43;6.95;;;;;;;6.46;100.00;103492.94;10459774;28;20045;-58
2022/01/23 14:13:39;;;;;;;12.50;7.25;;;;;;;6.37;100.00;103490.34;10460642;28;20053;-59
2022/01/23 14:18:42;;;;;;;8.52;7.18;;;;;;;6.45;100.00;103491.19;10460572;28;20057;-51
2022/01/23 14:23:54;;;;;;;8.05;6.55;;;;;;;6.46;100.00;103486.88;10460149;28;20401;-56
2022/01/23 14:28:57;;;;;;;9.25;7.30;;;;;;;6.47;100.00;103491.22;10459070;28;20045;-53
2022/01/23 14:34:00;;;;;;;9.60;6.38;;;;;;;6.34;100.00;103500.72;10459144;28;20068;-55
2022/01/23 14:39:10;;;;;;;9.30;6.88;;;;;;;6.30;100.00;103499.84;10461242;28;20052;-54
2022/01/23 14:44:20;;;;;;;13.38;7.68;;;;;;;6.31;100.00;103500.72;10460157;28;20041;-57
2022/01/23 14:49:27;;;;;;;10.57;7.05;;;;;;;6.29;100.00;103494.63;10459165;28;20053;-57
2022/01/23 14:54:32;;;;;;;10.73;7.43;;;;;;;6.26;100.00;103503.28;10459217;28;20045;-57
2022/01/23 14:59:36;;;;;;;8.75;7.03;;;;;;;6.19;100.00;103500.66;10458872;28;20507;-59
2022/01/23 15:04:45;;;;;;;8.73;6.53;;;;;;;6.21;100.00;103504.16;10458629;28;20045;-56
2022/01/23 15:09:49;;;;;;;11.52;6.50;;;;;;;6.23;100.00;103503.28;10458229;28;20493;-58
2022/01/23 15:14:52;;;;;;;8.55;6.32;;;;;;;6.14;100.00;103506.72;10458235;28;20057;-57
2022/01/23 15:19:55;;;;;;;11.80;6.45;;;;;;;6.09;100.00;103508.41;10459047;28;20053;-55
2022/01/23 15:24:58;;;;;;;9.43;5.97;;;;;;;6.07;100.00;103506.66;10457885;28;20048;-54
2022/01/23 15:30:00;;;;;;;7.32;5.63;;;;;;;6.26;100.00;103520.63;10457335;28;20060;-57
2022/01/23 15:35:04;;;;;;;8.25;6.20;;;;;;;6.00;100.00;103507.50;10456225;28;20468;-58
2022/01/23 15:40:10;;;;;;;9.70;6.25;;;;;;;6.01;100.00;103512.72;10457395;28;20497;-57
2022/01/23 15:45:13;;;;;;;6.93;5.80;;;;;;;6.07;100.00;103499.75;10457505;28;20393;-55
2022/01/23 15:50:17;;;;;;;8.95;6.40;;;;;;;5.85;100.00;103503.94;10456138;28;20045;-54
2022/01/23 15:55:20;;;;;;;8.65;4.70;;;;;;;5.81;100.00;103504.75;10458023;28;20053;-55
2022/01/23 16:00:23;;;;;;;8.90;5.70;;;;;;;5.76;100.00;103502.13;10457773;28;20056;-58
2022/01/23 16:05:25;;;;;;;6.00;4.53;;;;;;;5.70;100.00;103494.31;10456697;28;20052;-55
2022/01/23 16:10:28;;;;;;;6.85;5.35;;;;;;;5.94;100.00;103498.78;10456445;28;20059;-59
2022/01/23 16:15:31;;;;;;;6.47;5.35;;;;;;;5.53;100.00;103495.91;10456575;28;20056;-59
2022/01/23 16:20:33;;;;;;;5.60;4.18;;;;;;;5.43;100.00;103502.78;10456525;28;20076;-58
2022/01/23 16:25:36;;;;;;;7.80;4.18;;;;;;;5.53;100.00;103495.91;10456509;28;20045;-58
2022/01/23 16:30:52;;;;;;;8.52;4.53;;;;;;;5.44;100.00;103498.47;10456486;28;20404;-57
2022/01/23 16:35:56;;;;;;;7.50;4.88;;;;;;;5.68;100.00;103500.34;10457224;28;20045;-59
2022/01/23 16:40:59;;;;;;;10.35;4.95;;;;;;;5.49;100.00;103501.97;10456481;28;20055;-56
2022/01/23 16:46:02;;;;;;;6.30;5.60;;;;;;;5.47;100.00;103504.53;10455793;28;20053;-57
2022/01/23 16:51:05;;;;;;;7.55;5.57;;;;;;;5.65;100.00;103510.72;10456101;28;20080;-56
2022/01/23 16:56:08;;;;;;;11.13;6.15;;;;;;;5.49;100.00;103512.34;10454633;28;20049;-58
2022/01/23 17:01:10;;;;;;;6.18;5.28;;;;;;;5.51;100.00;103513.22;10459195;28;20068;-58
2022/01/23 17:06:13;;;;;;;8.55;5.45;;;;;;;5.41;100.00;103512.28;10463222;28;20045;-56
2022/01/23 17:11:15;;;;;;;10.25;6.30;;;;;;;5.41;100.00;103509.69;10463093;28;20505;-58
2022/01/23 17:16:18;;;;;;;9.30;5.60;;;;;;;5.43;100.00;103508.00;10464065;28;20390;-56
2022/01/23 17:21:21;;;;;;;11.57;6.65;;;;;;;5.43;100.00;103513.19;10462759;28;20493;-59
2022/01/23 17:26:26;;;;;;;8.55;6.03;;;;;;;5.32;100.00;103512.22;10462646;28;20055;-54
2022/01/23 17:31:28;;;;;;;9.30;6.07;;;;;;;5.43;100.00;103512.28;10462676;28;20056;-57
2022/01/23 17:36:31;;;;;;;11.10;6.60;;;;;;;5.26;100.00;103512.16;10461085;28;20107;-54
2022/01/23 17:41:33;;;;;;;8.88;6.57;;;;;;;5.28;100.00;103513.94;10461845;28;20405;-55
2022/01/23 17:46:37;;;;;;;10.20;6.97;;;;;;;5.28;100.00;103518.22;10461859;28;20052;-52
2022/01/23 17:51:40;;;;;;;7.85;6.13;;;;;;;5.36;100.00;103520.06;10461648;28;20095;-52
2022/01/23 17:56:42;;;;;;;11.43;5.85;;;;;;;5.19;100.00;103512.13;10465180;28;20508;-54
2022/01/23 18:01:45;;;;;;;8.45;6.50;;;;;;;5.22;100.00;103519.06;10461254;28;20059;-55
2022/01/23 18:06:56;;;;;;;14.50;9.60;;;;;;;5.18;100.00;103518.19;10461084;28;20045;-56
2022/01/23 18:11:58;;;;;;;16.80;10.30;;;;;;;5.22;100.00;103511.28;10458355;28;20041;-58
2022/01/23 18:17:01;;;;;;;18.27;9.27;;;;;;;5.37;100.00;103511.41;10459369;28;20509;-54
2022/01/23 18:22:03;;;;;;;18.42;11.90;;;;;;;5.26;100.00;103507.88;10460437;28;20416;-56
2022/01/23 18:27:08;;;;;;;19.38;11.82;;;;;;;5.10;100.00;103521.56;10460321;28;20519;-55
2022/01/23 18:32:17;;;;;;;15.50;10.85;;;;;;;5.21;100.00;103518.22;10460385;28;20076;-56
2022/01/23 18:37:20;;;;;;;18.20;11.10;;;;;;;5.13;100.00;103516.41;10460015;28;20049;-58
2022/01/23 18:42:22;;;;;;;21.88;12.93;;;;;;;5.17;100.00;103521.63;10459779;28;20060;-55
2022/01/23 18:47:24;;;;;;;25.00;15.73;;;;;;;5.28;100.00;103526.03;10458331;28;20049;-55
2022/01/23 18:52:28;;;;;;;24.05;15.70;;;;;;;5.04;100.00;103524.94;10459063;28;20497;-52
2022/01/23 18:58:01;;;;;;;24.40;14.68;;;;;;;5.04;100.00;103530.16;10459193;28;20059;-53
2022/01/23 19:02:59;;;;;;;23.75;14.80;;;;;;;5.14;100.00;103526.78;10458668;28;20058;-53
2022/01/23 19:08:07;;;;;;;21.05;15.05;;;;;;;5.08;100.00;103523.25;10459105;28;20477;-55
2022/01/23 19:13:14;;;;;;;22.17;14.35;;;;;;;4.89;100.00;103527.41;10457811;28;20056;-57
2022/01/23 19:18:17;;;;;;;21.23;13.10;;;;;;;4.96;100.00;103524.00;10457251;28;20049;-56
2022/01/23 19:23:20;;;;;;;21.17;13.32;;;;;;;4.99;100.00;103519.75;10457892;28;20064;-54
2022/01/23 19:28:24;;;;;;;26.60;14.15;;;;;;;4.94;100.00;103513.63;10457872;28;20068;-53
2022/01/23 19:33:29;;;;;;;27.38;17.30;;;;;;;4.90;100.00;103509.25;10457827;28;20044;-58
2022/01/23 19:38:31;;;;;;;29.85;17.77;;;;;;;5.05;100.00;103503.34;10458054;28;20044;-58
2022/01/23 19:48:47;;;;;;;43.00;21.88;;;;;;;4.90;100.00;103488.47;10457773;28;20048;-57
2022/01/23 19:53:50;;;;;;;34.63;20.27;;;;;;;4.92;100.00;103480.72;10457434;28;20049;-57
2022/01/23 19:58:52;;;;;;;43.78;22.13;;;;;;;5.00;100.00;103474.72;10457740;28;20049;-56
2022/01/23 20:03:55;;;;;;;39.90;23.17;;;;;;;4.90;100.00;103479.84;10456673;28;20051;-55
2022/01/23 20:09:07;;;;;;;40.90;23.17;;;;;;;4.88;100.00;103484.16;10456765;28;20049;-56
2022/01/23 20:14:13;;;;;;;38.38;21.67;;;;;;;4.92;100.00;103491.09;10456172;28;20060;-55
2022/01/23 20:19:16;;;;;;;36.42;21.77;;;;;;;5.13;100.00;103495.63;10456408;28;20065;-58
2022/01/23 20:24:18;;;;;;;41.30;24.30;;;;;;;5.12;100.00;103491.28;10456461;28;20056;-56
2022/01/23 20:29:26;;;;;;;52.70;30.35;;;;;;;4.78;100.00;103489.22;10455028;28;20044;-56
2022/01/23 20:34:30;;;;;;;55.33;30.98;;;;;;;4.85;100.00;103477.19;10458677;28;20057;-54
2022/01/23 20:39:36;;;;;;;47.67;27.73;;;;;;;5.06;100.00;103481.72;10464825;28;20049;-57
2022/01/23 20:44:39;;;;;;;51.60;29.50;;;;;;;4.89;100.00;103465.97;10464378;28;20386;-52
2022/01/23 20:49:41;;;;;;;64.25;32.92;;;;;;;4.82;100.00;103478.03;10464129;28;20055;-56
2022/01/23 20:54:44;;;;;;;59.45;32.17;;;;;;;5.06;100.00;103476.53;10464046;28;20057;-55
2022/01/23 20:59:46;;;;;;;65.95;32.67;;;;;;;4.94;100.00;103468.59;10463028;28;20057;-53
2022/01/23 21:04:49;;;;;;;86.28;38.53;;;;;;;4.83;100.00;103460.72;10463142;28;20056;-55
2022/01/23 21:09:54;;;;;;;61.42;32.85;;;;;;;5.00;100.00;103463.47;10463764;28;20048;-54
2022/01/23 21:20:17;;;;;;;54.85;31.33;;;;;;;4.94;100.00;103472.09;10463433;28;20045;-53
2022/01/23 21:41:07;;;;;;;42.42;26.33;;;;;;;5.01;100.00;103449.66;10461904;28;20485;-56
2022/01/23 21:46:09;;;;;;;42.85;26.48;;;;;;;4.98;100.00;103454.81;10462157;28;20053;-55
2022/01/23 21:51:12;;;;;;;48.03;27.73;;;;;;;4.82;100.00;103453.78;10463136;28;20084;-56
2022/01/23 21:56:14;;;;;;;47.28;27.30;;;;;;;4.86;100.00;103452.97;10461619;28;20513;-55
2022/01/23 22:01:17;;;;;;;43.08;26.40;;;;;;;4.90;100.00;103454.72;10461406;28;20060;-53
2022/01/23 22:06:20;;;;;;;48.03;27.52;;;;;;;4.72;100.00;103457.16;10461764;28;20068;-51
2022/01/23 22:11:30;;;;;;;51.17;27.45;;;;;;;4.90;100.00;103451.28;10461014;28;20071;-56
2022/01/23 22:16:33;;;;;;;44.80;26.50;;;;;;;4.81;100.00;103454.66;10461887;28;20053;-55
2022/01/23 22:21:52;;;;;;;42.40;26.63;;;;;;;4.81;100.00;103460.72;10460430;28;20449;-54
2022/01/23 22:26:54;;;;;;;48.83;27.60;;;;;;;4.86;100.00;103468.56;10459012;28;20503;-56
2022/01/23 22:31:56;;;;;;;53.35;29.13;;;;;;;4.65;100.00;103461.41;10459847;28;20486;-57
2022/01/23 22:36:59;;;;;;;56.97;30.25;;;;;;;5.00;100.00;103472.13;10459319;28;20512;-55
2022/01/23 22:42:01;;;;;;;65.60;32.83;;;;;;;4.84;100.00;103471.13;10460011;28;20053;-55
2022/01/23 22:47:04;;;;;;;62.10;33.75;;;;;;;4.88;100.00;103465.97;10459613;28;20052;-57
2022/01/23 22:52:07;;;;;;;64.10;34.47;;;;;;;4.90;100.00;103470.31;10458651;28;20398;-57
2022/01/23 22:57:09;;;;;;;61.50;33.50;;;;;;;5.06;100.00;103475.63;10458701;28;20041;-51
2022/01/23 23:02:15;;;;;;;78.53;40.67;;;;;;;4.63;100.00;103465.72;10459099;28;20052;-58
2022/01/23 23:07:18;;;;;;;70.28;38.75;;;;;;;4.96;100.00;103469.47;10459230;28;20053;-56
2022/01/23 23:12:28;;;;;;;67.65;37.92;;;;;;;4.71;100.00;103464.09;10458486;28;20052;-58
2022/01/23 23:17:31;;;;;;;67.70;36.40;;;;;;;4.73;100.00;103477.06;10459412;28;20048;-56
2022/01/23 23:22:33;;;;;;;70.65;37.75;;;;;;;5.01;100.00;103476.47;10458266;28;20056;-57
2022/01/23 23:27:35;;;;;;;69.30;40.60;;;;;;;4.76;100.00;103471.91;10457555;28;20072;-54
2022/01/23 23:32:38;;;;;;;73.13;39.50;;;;;;;4.63;100.00;103478.69;10457675;28;20041;-54
2022/01/23 23:37:40;;;;;;;73.05;40.53;;;;;;;4.61;100.00;103468.31;10457413;28;20053;-55
2022/01/23 23:43:04;;;;;;;74.50;41.30;;;;;;;4.52;100.00;103467.31;10457889;28;20052;-54
2022/01/23 23:48:06;;;;;;;73.95;39.50;;;;;;;4.66;100.00;103463.16;10457809;28;20045;-55
2022/01/23 23:53:09;;;;;;;71.65;40.42;;;;;;;4.57;100.00;103468.25;10457317;28;20049;-56
2022/01/23 23:58:11;;;;;;;63.75;37.67;;;;;;;4.57;100.00;103458.75;10456730;28;20405;-56
